createdAt,value
2023-02-27T00:00:18.744Z,99468.30
2023-02-27T00:02:47.883Z,99470.87
2023-02-27T00:06:47.362Z,99478.66
2023-02-27T00:09:25.281Z,99471.73
2023-02-27T00:11:53.956Z,99489.41
2023-02-27T00:14:22.847Z,99482.68
2023-02-27T00:16:59.112Z,99483.54
2023-02-27T00:19:28.721Z,99495.86
2023-02-27T00:21:57.102Z,99497.27
2023-02-27T00:24:34.624Z,99497.48
2023-02-27T00:27:09.651Z,99506.08
2023-02-27T00:29:39.758Z,99509.05
2023-02-27T00:32:08.098Z,99507.85
2023-02-27T00:34:36.826Z,99510.72
2023-02-27T00:37:05.204Z,99515.45
2023-02-27T00:39:34.813Z,99519.63
2023-02-27T00:42:03.194Z,99524.93
2023-02-27T00:44:32.092Z,99526.09
2023-02-27T00:47:00.572Z,99524.86
2023-02-27T00:49:29.057Z,99526.41
2023-02-27T00:51:57.334Z,99532.45
2023-02-27T00:54:27.522Z,99539.39
2023-02-27T00:56:55.934Z,99545.83
2023-02-27T00:59:24.312Z,99551.41
2023-02-27T01:01:54.231Z,99553.59
2023-02-27T01:04:25.171Z,99552.46
2023-02-27T01:06:55.308Z,99555.74
2023-02-27T01:09:25.225Z,99555.53
2023-02-27T01:11:54.015Z,99562.13
2023-02-27T01:14:23.715Z,99569.26
2023-02-27T01:16:52.199Z,99574.17
2023-02-27T01:19:20.686Z,99574.84
2023-02-27T01:21:49.477Z,99573.38
2023-02-27T01:24:20.414Z,99570.01
2023-02-27T01:26:49.928Z,99567.98
2023-02-27T01:29:18.410Z,99561.92
2023-02-27T01:31:47.603Z,99559.21
2023-02-27T01:34:19.264Z,99567.93
2023-02-27T01:36:47.641Z,99569.59
2023-02-27T01:39:18.174Z,99567.91
2023-02-27T01:41:46.875Z,99569.89
2023-02-27T01:44:20.271Z,99571.54
2023-02-27T01:46:49.461Z,99572.73
2023-02-27T01:49:21.130Z,99572.30
2023-02-27T01:51:55.540Z,99572.92
2023-02-27T01:54:26.378Z,99572.08
2023-02-27T01:56:54.695Z,99573.30
2023-02-27T01:59:23.240Z,99576.50
2023-02-27T02:01:51.931Z,99576.27
2023-02-27T02:04:34.676Z,99580.65
2023-02-27T02:07:05.085Z,99586.16
2023-02-27T02:09:36.424Z,99585.44
2023-02-27T02:12:04.913Z,99583.73
2023-02-27T02:14:36.153Z,99586.39
2023-02-27T02:17:07.918Z,99586.08
2023-02-27T02:19:45.420Z,99577.59
2023-02-27T02:22:32.631Z,99592.38
2023-02-27T02:25:30.406Z,99595.86
2023-02-27T02:28:10.962Z,99600.80
2023-02-27T02:30:49.275Z,99604.75
2023-02-27T02:33:30.045Z,99609.24
2023-02-27T02:36:29.966Z,99610.58
2023-02-27T02:39:13.709Z,99614.17
2023-02-27T02:41:54.169Z,99620.29
2023-02-27T02:44:40.984Z,99620.17
2023-02-27T02:47:25.440Z,99621.98
2023-02-27T02:50:01.575Z,99622.43
2023-02-27T02:52:38.785Z,99623.73
2023-02-27T02:55:13.223Z,99622.56
2023-02-27T02:57:48.242Z,99625.00
2023-02-27T03:00:21.639Z,99621.95
2023-02-27T03:02:54.117Z,99626.98
2023-02-27T03:05:28.435Z,99630.13
2023-02-27T03:07:58.661Z,99632.14
2023-02-27T03:10:33.590Z,99634.36
2023-02-27T03:13:09.045Z,99637.90
2023-02-27T03:15:45.886Z,99641.23
2023-02-27T03:18:21.051Z,99642.73
2023-02-27T03:20:58.954Z,99647.73
2023-02-27T03:23:36.768Z,99652.33
2023-02-27T03:26:07.495Z,99656.88
2023-02-27T03:28:39.041Z,99657.98
2023-02-27T03:31:12.150Z,99661.30
2023-02-27T03:33:52.079Z,99663.22
2023-02-27T03:36:43.525Z,99667.65
2023-02-27T03:39:19.963Z,99668.04
2023-02-27T03:42:16.502Z,99676.80
2023-02-27T03:45:10.482Z,99678.49
2023-02-27T03:47:39.576Z,99680.59
2023-02-27T03:50:08.963Z,99680.92
2023-02-27T03:52:37.466Z,99682.11
2023-02-27T03:55:14.441Z,99681.67
2023-02-27T03:57:43.332Z,99681.36
2023-02-27T04:00:14.599Z,99681.07
2023-02-27T04:02:50.700Z,99687.38
2023-02-27T04:05:21.470Z,99690.37
2023-02-27T04:08:16.477Z,99697.29
2023-02-27T04:11:03.907Z,99702.02
2023-02-27T04:13:58.802Z,99705.77
2023-02-27T04:16:48.587Z,99712.50
2023-02-27T04:19:44.212Z,99720.66
2023-02-27T04:22:32.961Z,99723.68
2023-02-27T04:25:24.696Z,99721.73
2023-02-27T04:28:16.108Z,99721.94
2023-02-27T04:31:30.614Z,99725.89
2023-02-27T04:34:25.777Z,99728.81
2023-02-27T04:36:57.339Z,99735.56
2023-02-27T04:39:51.750Z,99738.55
2023-02-27T04:42:24.511Z,99743.45
2023-02-27T04:45:00.871Z,99742.05
2023-02-27T04:47:32.731Z,99745.83
2023-02-27T04:50:10.117Z,99750.78
2023-02-27T04:52:42.124Z,99755.01
2023-02-27T04:55:12.414Z,99753.58
2023-02-27T04:57:47.090Z,99757.45
2023-02-27T05:00:16.030Z,99761.86
2023-02-27T05:02:47.978Z,99766.80
2023-02-27T05:05:18.827Z,99772.85
2023-02-27T05:07:53.146Z,99772.77
2023-02-27T05:10:28.489Z,99778.48
2023-02-27T05:13:07.824Z,99782.20
2023-02-27T05:15:49.171Z,99792.13
2023-02-27T05:18:19.235Z,99797.89
2023-02-27T05:21:16.686Z,99801.33
2023-02-27T05:24:04.130Z,99801.09
2023-02-27T05:26:33.003Z,99807.98
2023-02-27T05:29:28.416Z,99810.66
2023-02-27T05:32:21.594Z,99811.38
2023-02-27T05:34:57.760Z,99814.46
2023-02-27T05:37:32.874Z,99822.02
2023-02-27T05:40:01.876Z,99828.02
2023-02-27T05:42:36.326Z,99824.11
2023-02-27T05:45:10.105Z,99825.62
2023-02-27T05:47:41.234Z,99823.82
2023-02-27T05:50:14.421Z,99831.48
2023-02-27T05:52:42.708Z,99834.58
2023-02-27T05:55:20.402Z,99840.12
2023-02-27T05:57:53.096Z,99844.91
2023-02-27T06:00:40.720Z,99847.11
2023-02-27T06:03:10.180Z,99843.44
2023-02-27T06:05:40.397Z,99838.55
2023-02-27T06:08:09.544Z,99839.73
2023-02-27T06:10:44.165Z,99841.54
2023-02-27T06:13:12.759Z,99843.25
2023-02-27T06:15:42.259Z,99840.86
2023-02-27T06:18:15.290Z,99841.60
2023-02-27T06:20:45.170Z,99845.30
2023-02-27T06:23:14.052Z,99851.80
2023-02-27T06:25:43.763Z,99853.84
2023-02-27T06:28:12.244Z,99852.00
2023-02-27T06:30:40.866Z,99852.73
2023-02-27T06:33:09.917Z,99853.43
2023-02-27T06:35:39.602Z,99855.04
2023-02-27T06:38:08.111Z,99857.33
2023-02-27T06:40:36.692Z,99864.36
2023-02-27T06:43:05.280Z,99873.35
2023-02-27T06:45:33.759Z,99874.91
2023-02-27T06:48:02.238Z,99875.42
2023-02-27T06:50:30.737Z,99884.61
2023-02-27T06:52:59.310Z,99886.67
2023-02-27T06:55:28.119Z,99884.24
2023-02-27T06:57:56.477Z,99888.35
2023-02-27T07:00:25.168Z,99889.00
2023-02-27T07:02:53.537Z,99890.39
2023-02-27T07:05:22.947Z,99888.88
2023-02-27T07:07:51.934Z,99885.66
2023-02-27T07:10:20.830Z,99886.14
2023-02-27T07:12:49.758Z,99885.70
2023-02-27T07:15:19.122Z,99878.56
2023-02-27T07:17:47.503Z,99880.87
2023-02-27T07:20:18.850Z,99880.48
2023-02-27T07:22:47.751Z,99877.52
2023-02-27T07:25:16.344Z,99879.35
2023-02-27T07:27:46.357Z,99888.34
2023-02-27T07:30:16.782Z,99889.65
2023-02-27T07:32:45.250Z,99888.88
2023-02-27T07:35:13.825Z,99885.46
2023-02-27T07:37:42.534Z,99883.00
2023-02-27T07:40:12.448Z,99889.66
2023-02-27T07:42:40.935Z,99894.84
2023-02-27T07:45:10.219Z,99898.79
2023-02-27T07:47:38.615Z,99903.00
2023-02-27T07:50:07.775Z,99903.95
2023-02-27T07:52:36.397Z,99902.92
2023-02-27T07:55:04.979Z,99902.06
2023-02-27T07:57:34.186Z,99901.48
2023-02-27T08:00:04.581Z,99905.41
2023-02-27T08:02:40.494Z,99899.69
2023-02-27T08:05:09.050Z,99903.46
2023-02-27T08:07:37.849Z,99912.19
2023-02-27T08:10:07.760Z,99914.55
2023-02-27T08:12:36.335Z,99919.88
2023-02-27T08:15:05.779Z,99916.80
2023-02-27T08:17:36.480Z,99907.93
2023-02-27T08:20:07.635Z,99916.69
2023-02-27T08:22:36.613Z,99921.58
2023-02-27T08:25:07.932Z,99933.24
2023-02-27T08:27:36.342Z,99936.77
2023-02-27T08:30:06.799Z,99933.38
2023-02-27T08:32:35.414Z,99931.33
2023-02-27T08:35:04.044Z,99931.45
2023-02-27T08:37:32.523Z,99930.73
2023-02-27T08:40:02.336Z,99925.94
2023-02-27T08:42:31.024Z,99931.10
2023-02-27T08:45:00.120Z,99930.38
2023-02-27T08:47:28.599Z,99935.55
2023-02-27T08:49:56.982Z,99934.98
2023-02-27T08:52:25.464Z,99935.34
2023-02-27T08:54:53.840Z,99940.14
2023-02-27T08:57:22.423Z,99944.65
2023-02-27T08:59:50.887Z,99945.95
2023-02-27T09:02:23.850Z,99945.82
2023-02-27T09:04:53.521Z,99898.36
2023-02-27T09:07:21.866Z,99947.89
2023-02-27T09:09:50.370Z,99951.34
2023-02-27T09:12:21.728Z,99950.73
2023-02-27T09:14:50.203Z,99948.95
2023-02-27T09:17:21.348Z,99947.39
2023-02-27T09:19:52.698Z,99944.16
2023-02-27T09:22:21.280Z,99947.05
2023-02-27T09:24:51.097Z,99948.31
2023-02-27T09:27:19.479Z,99934.40
2023-02-27T09:29:49.594Z,99942.05
2023-02-27T09:32:18.116Z,99945.34
2023-02-27T09:34:46.566Z,99945.95
2023-02-27T09:37:15.863Z,99951.44
2023-02-27T09:39:46.242Z,99951.27
2023-02-27T09:42:23.070Z,99950.27
2023-02-27T09:44:57.106Z,99954.73
2023-02-27T09:47:26.911Z,99958.50
2023-02-27T09:49:59.578Z,99957.17
2023-02-27T09:52:29.107Z,99964.36
2023-02-27T09:54:57.561Z,99953.72
2023-02-27T09:58:08.234Z,99967.45
2023-02-27T10:00:49.722Z,99967.92
2023-02-27T10:03:21.297Z,99963.73
2023-02-27T10:06:23.450Z,99966.06
2023-02-27T10:09:06.984Z,99965.02
2023-02-27T10:12:14.713Z,99972.84
2023-02-27T10:15:11.022Z,99976.33
2023-02-27T10:17:42.384Z,99974.30
2023-02-27T10:20:34.720Z,99974.82
2023-02-27T10:23:11.875Z,99975.73
2023-02-27T10:25:45.606Z,99979.66
2023-02-27T10:28:16.854Z,99979.99
2023-02-27T10:30:48.674Z,99979.48
2023-02-27T10:33:36.042Z,99985.66
2023-02-27T10:36:20.630Z,99986.00
2023-02-27T10:39:05.380Z,99993.47
2023-02-27T10:41:35.721Z,99993.66
2023-02-27T10:44:05.203Z,99998.95
2023-02-27T10:46:38.413Z,99999.98
2023-02-27T10:49:20.306Z,99995.81
2023-02-27T10:52:16.008Z,99999.21
2023-02-27T10:54:45.830Z,99995.58
2023-02-27T10:57:40.721Z,99991.46
2023-02-27T11:00:23.536Z,99993.42
2023-02-27T11:02:54.776Z,99990.15
2023-02-27T11:05:30.224Z,99990.20
2023-02-27T11:08:20.926Z,99986.14
2023-02-27T11:10:57.908Z,99985.65
2023-02-27T11:13:30.586Z,99988.21
2023-02-27T11:16:08.588Z,99990.63
2023-02-27T11:18:39.741Z,99989.31
2023-02-27T11:21:23.079Z,99991.95
2023-02-27T11:24:17.668Z,99987.06
2023-02-27T11:26:57.517Z,99986.80
2023-02-27T11:29:26.504Z,99991.20
2023-02-27T11:31:59.700Z,99992.15
2023-02-27T11:34:29.733Z,99989.13
2023-02-27T11:37:04.964Z,99987.77
2023-02-27T11:39:40.512Z,99984.36
2023-02-27T11:42:22.719Z,99979.48
2023-02-27T11:44:55.706Z,99977.98
2023-02-27T11:47:28.971Z,99980.31
2023-02-27T11:50:13.985Z,99988.54
2023-02-27T11:53:01.928Z,99995.70
2023-02-27T11:55:30.386Z,99993.77
2023-02-27T11:58:13.404Z,99997.29
2023-02-27T12:00:51.109Z,99994.63
2023-02-27T12:03:50.475Z,99997.27
2023-02-27T12:06:27.192Z,99995.18
2023-02-27T12:09:05.938Z,100000.32
2023-02-27T12:11:41.559Z,100000.77
2023-02-27T12:14:39.159Z,100007.89
2023-02-27T12:17:23.575Z,100001.23
2023-02-27T12:20:05.470Z,100010.61
2023-02-27T12:24:53.131Z,100013.86
2023-02-27T12:27:25.182Z,100020.09
2023-02-27T12:30:00.630Z,100024.14
2023-02-27T12:32:36.838Z,100023.70
2023-02-27T12:35:17.601Z,100033.45
2023-02-27T12:37:46.348Z,100028.19
2023-02-27T12:40:18.729Z,100028.26
2023-02-27T12:42:55.903Z,100028.34
2023-02-27T12:45:41.971Z,100029.10
2023-02-27T12:48:34.950Z,100031.66
2023-02-27T12:51:43.675Z,100033.82
2023-02-27T12:54:21.886Z,100039.69
2023-02-27T12:57:02.467Z,100043.29
2023-02-27T12:59:44.658Z,100050.54
2023-02-27T13:02:47.135Z,100050.64
2023-02-27T13:05:28.467Z,100051.69
2023-02-27T13:08:21.966Z,100056.23
2023-02-27T13:10:56.933Z,100059.25
2023-02-27T13:13:52.356Z,100060.70
2023-02-27T13:16:26.929Z,100061.34
2023-02-27T13:19:06.854Z,100065.52
2023-02-27T13:21:44.822Z,100068.73
2023-02-27T13:24:27.104Z,100066.61
2023-02-27T13:27:19.575Z,100064.45
2023-02-27T13:30:02.081Z,100063.15
2023-02-27T13:32:44.613Z,100061.83
2023-02-27T13:35:27.004Z,100062.90
2023-02-27T13:37:58.556Z,100062.32
2023-02-27T13:40:38.206Z,100061.52
2023-02-27T13:43:38.156Z,100059.46
2023-02-27T13:46:31.380Z,100062.54
2023-02-27T13:49:05.928Z,100062.56
2023-02-27T13:51:40.734Z,100063.96
2023-02-27T13:54:15.402Z,100062.91
2023-02-27T13:56:45.480Z,100064.72
2023-02-27T13:59:42.145Z,100060.52
2023-02-27T14:02:22.413Z,100062.47
2023-02-27T14:04:53.971Z,100061.48
2023-02-27T14:07:24.387Z,100069.42
2023-02-27T14:10:00.418Z,100068.58
2023-02-27T14:12:44.054Z,100068.95
2023-02-27T14:15:24.117Z,100070.89
2023-02-27T14:18:09.608Z,100072.84
2023-02-27T14:20:41.986Z,100075.36
2023-02-27T14:23:17.624Z,100073.02
2023-02-27T14:25:58.176Z,100071.58
2023-02-27T14:28:30.572Z,100070.34
2023-02-27T14:31:24.461Z,100071.30
2023-02-27T14:33:55.397Z,100075.98
2023-02-27T14:36:26.208Z,100074.34
2023-02-27T14:38:58.487Z,100073.96
2023-02-27T14:41:36.690Z,100069.38
2023-02-27T14:44:05.388Z,100070.52
2023-02-27T14:46:39.306Z,100078.45
2023-02-27T14:49:16.578Z,100082.48
2023-02-27T14:51:45.058Z,100086.92
2023-02-27T14:54:18.559Z,100085.32
2023-02-27T14:56:58.219Z,100090.96
2023-02-27T14:59:31.706Z,100090.46
2023-02-27T15:02:07.237Z,100095.63
2023-02-27T15:04:36.588Z,100097.38
2023-02-27T15:07:05.082Z,100101.04
2023-02-27T15:09:35.979Z,100104.07
2023-02-27T15:12:05.101Z,100107.43
2023-02-27T15:14:36.584Z,100110.64
2023-02-27T15:17:19.795Z,100111.77
2023-02-27T15:19:58.874Z,100114.98
2023-02-27T15:22:38.887Z,100119.58
2023-02-27T15:25:32.217Z,100125.76
2023-02-27T15:28:03.432Z,100128.42
2023-02-27T15:30:32.654Z,100128.83
2023-02-27T15:33:02.416Z,100132.49
2023-02-27T15:35:38.072Z,100135.00
2023-02-27T15:38:07.848Z,100136.77
2023-02-27T15:40:38.870Z,100138.75
2023-02-27T15:43:07.372Z,100140.61
2023-02-27T15:45:35.955Z,100144.73
2023-02-27T15:48:04.677Z,100149.88
2023-02-27T15:50:37.564Z,100144.70
2023-02-27T15:53:38.462Z,100158.88
2023-02-27T15:56:10.013Z,100165.63
2023-02-27T15:58:49.143Z,100172.08
2023-02-27T16:01:19.526Z,100177.38
2023-02-27T16:03:51.744Z,100180.35
2023-02-27T16:06:32.777Z,100185.70
2023-02-27T16:09:03.955Z,100188.72
2023-02-27T16:11:34.589Z,100193.20
2023-02-27T16:14:02.970Z,100201.48
2023-02-27T16:16:36.394Z,100204.06
2023-02-27T16:19:27.173Z,100207.05
2023-02-27T16:22:11.419Z,100212.83
2023-02-27T16:24:40.913Z,100220.88
2023-02-27T16:27:26.023Z,100223.11
2023-02-27T16:29:55.911Z,100226.14
2023-02-27T16:32:35.632Z,100228.45
2023-02-27T16:35:06.678Z,100233.87
2023-02-27T16:37:36.207Z,100235.48
2023-02-27T16:40:25.345Z,100238.20
2023-02-27T16:42:54.372Z,100239.77
2023-02-27T16:45:27.468Z,100245.43
2023-02-27T16:47:59.729Z,100245.07
2023-02-27T16:50:33.439Z,100252.07
2023-02-27T16:53:01.833Z,100252.93
2023-02-27T16:55:33.757Z,100254.31
2023-02-27T16:58:02.570Z,100254.86
2023-02-27T17:00:31.060Z,100256.95
2023-02-27T17:02:59.539Z,100258.06
2023-02-27T17:05:27.924Z,100260.52
2023-02-27T17:07:57.939Z,100263.23
2023-02-27T17:10:26.522Z,100268.86
2023-02-27T17:12:59.518Z,100269.38
2023-02-27T17:15:29.440Z,100272.31
2023-02-27T17:17:58.018Z,100277.02
2023-02-27T17:20:28.386Z,100285.10
2023-02-27T17:22:59.998Z,100287.41
2023-02-27T17:25:28.784Z,100291.73
2023-02-27T17:27:57.142Z,100296.70
2023-02-27T17:30:25.700Z,100298.83
2023-02-27T17:32:54.344Z,100304.59
2023-02-27T17:35:23.345Z,100305.45
2023-02-27T17:37:51.917Z,100309.60
2023-02-27T17:40:24.695Z,100311.52
2023-02-27T17:42:53.389Z,100320.55
2023-02-27T17:45:21.873Z,100321.43
2023-02-27T17:47:50.659Z,100324.80
2023-02-27T17:50:19.042Z,100325.33
2023-02-27T17:52:47.950Z,100334.10
2023-02-27T17:55:17.228Z,100336.71
2023-02-27T17:57:46.326Z,100333.62
2023-02-27T18:00:15.736Z,100338.33
2023-02-27T18:02:48.359Z,100351.84
2023-02-27T18:05:16.995Z,100357.45
2023-02-27T18:07:45.394Z,100359.95
2023-02-27T18:10:14.738Z,100362.62
2023-02-27T18:12:43.370Z,100360.06
2023-02-27T18:15:12.463Z,100364.49
2023-02-27T18:17:43.405Z,100362.69
2023-02-27T18:20:12.752Z,100360.83
2023-02-27T18:22:41.705Z,100361.09
2023-02-27T18:25:10.710Z,100362.38
2023-02-27T18:27:39.177Z,100371.80
2023-02-27T18:30:08.271Z,100373.70
2023-02-27T18:32:38.800Z,100376.52
2023-02-27T18:35:07.989Z,100380.69
2023-02-27T18:37:36.381Z,100384.74
2023-02-27T18:40:06.198Z,100382.50
2023-02-27T18:42:36.418Z,100381.59
2023-02-27T18:45:05.963Z,100386.07
2023-02-27T18:47:34.310Z,100383.56
2023-02-27T18:50:02.692Z,100387.98
2023-02-27T18:52:31.788Z,100397.96
2023-02-27T18:55:00.266Z,100404.67
2023-02-27T18:57:31.437Z,100405.58
2023-02-27T18:59:59.897Z,100410.98
2023-02-27T19:02:28.607Z,100410.52
2023-02-27T19:04:56.975Z,100408.93
2023-02-27T19:07:25.968Z,100409.65
2023-02-27T19:09:57.819Z,100409.16
2023-02-27T19:12:27.002Z,100407.46
2023-02-27T19:14:57.660Z,100409.50
2023-02-27T19:17:26.237Z,100410.46
2023-02-27T19:19:55.028Z,100409.66
2023-02-27T19:22:25.006Z,100416.44
2023-02-27T19:24:53.527Z,100415.38
2023-02-27T19:27:22.012Z,100416.70
2023-02-27T19:29:51.017Z,100421.95
2023-02-27T19:32:19.662Z,100422.02
2023-02-27T19:34:48.583Z,100428.41
2023-02-27T19:37:17.169Z,100429.05
2023-02-27T19:39:46.676Z,100429.37
2023-02-27T19:42:15.776Z,100428.99
2023-02-27T19:44:45.280Z,100429.70
2023-02-27T19:47:14.172Z,100429.42
2023-02-27T19:49:42.858Z,100431.55
2023-02-27T19:52:11.345Z,100435.23
2023-02-27T19:54:39.830Z,100437.68
2023-02-27T19:57:08.924Z,100442.48
2023-02-27T19:59:37.814Z,100443.23
2023-02-27T20:02:07.122Z,100442.80
2023-02-27T20:04:35.705Z,100443.39
2023-02-27T20:07:04.390Z,100445.80
2023-02-27T20:09:34.104Z,100447.60
2023-02-27T20:12:02.688Z,100448.79
2023-02-27T20:14:34.553Z,100450.43
2023-02-27T20:17:03.439Z,100451.09
2023-02-27T20:19:31.960Z,100450.64
2023-02-27T20:22:00.815Z,100447.61
2023-02-27T20:24:29.707Z,100449.95
2023-02-27T20:26:59.392Z,100459.55
2023-02-27T20:29:28.013Z,100461.45
2023-02-27T20:31:57.639Z,100460.65
2023-02-27T20:34:26.673Z,100463.55
2023-02-27T20:36:55.513Z,100463.37
2023-02-27T20:39:24.152Z,100468.59
2023-02-27T20:41:52.566Z,100467.68
2023-02-27T20:44:21.257Z,100473.48
2023-02-27T20:46:49.941Z,100470.80
2023-02-27T20:49:21.090Z,100470.01
2023-02-27T20:51:49.798Z,100470.48
2023-02-27T20:54:22.373Z,100471.50
2023-02-27T20:56:52.491Z,100472.30
2023-02-27T20:59:22.009Z,100481.26
2023-02-27T21:01:53.366Z,100483.06
2023-02-27T21:04:42.473Z,100486.25
2023-02-27T21:07:12.190Z,100487.48
2023-02-27T21:09:42.459Z,100493.51
2023-02-27T21:12:10.930Z,100497.20
2023-02-27T21:14:44.273Z,100499.92
2023-02-27T21:17:14.023Z,100500.52
2023-02-27T21:19:46.612Z,100505.25
2023-02-27T21:22:16.528Z,100507.96
2023-02-27T21:24:46.853Z,100507.70
2023-02-27T21:27:16.783Z,100510.16
2023-02-27T21:29:45.251Z,100516.75
2023-02-27T21:32:14.015Z,100518.30
2023-02-27T21:34:42.533Z,100516.27
2023-02-27T21:37:12.755Z,100512.37
2023-02-27T21:39:50.757Z,100513.80
2023-02-27T21:42:19.140Z,100517.91
2023-02-27T21:44:47.929Z,100515.46
2023-02-27T21:47:17.027Z,100514.60
2023-02-27T21:49:45.514Z,100516.37
2023-02-27T21:52:14.098Z,100512.27
2023-02-27T21:54:42.583Z,100516.91
2023-02-27T21:57:11.167Z,100516.11
2023-02-27T21:59:42.725Z,100513.66
2023-02-27T22:02:12.332Z,100517.54
2023-02-27T22:04:41.845Z,100519.63
2023-02-27T22:07:11.509Z,100524.18
2023-02-27T22:09:45.869Z,100527.86
2023-02-27T22:12:16.213Z,100529.20
2023-02-27T22:14:44.987Z,100528.92
2023-02-27T22:17:13.372Z,100531.01
2023-02-27T22:19:41.954Z,100533.56
2023-02-27T22:22:10.643Z,100535.34
2023-02-27T22:24:42.109Z,100535.39
2023-02-27T22:27:11.190Z,100536.30
2023-02-27T22:29:42.180Z,100540.02
2023-02-27T22:32:11.677Z,100535.19
2023-02-27T22:34:44.830Z,100533.06
2023-02-27T22:37:16.390Z,100532.85
2023-02-27T22:39:46.214Z,100537.80
2023-02-27T22:42:14.583Z,100538.08
2023-02-27T22:44:43.682Z,100531.88
2023-02-27T22:47:12.062Z,100529.02
2023-02-27T22:49:44.850Z,100526.95
2023-02-27T22:52:13.230Z,100532.47
2023-02-27T22:54:41.610Z,100532.14
2023-02-27T22:57:10.605Z,100531.17
2023-02-27T22:59:45.335Z,100522.61
2023-02-27T23:02:14.124Z,100530.69
2023-02-27T23:04:42.608Z,100530.16
2023-02-27T23:07:11.500Z,100530.44
2023-02-27T23:09:39.984Z,100524.90
2023-02-27T23:12:08.466Z,100531.79
2023-02-27T23:14:38.602Z,100526.86
2023-02-27T23:17:07.483Z,100523.61
2023-02-27T23:19:36.794Z,100523.55
2023-02-27T23:22:06.493Z,100522.90
2023-02-27T23:24:38.611Z,100520.77
2023-02-27T23:27:25.314Z,100522.56
2023-02-27T23:29:54.785Z,100517.86
2023-02-27T23:32:23.691Z,100517.77
2023-02-27T23:34:52.977Z,100511.75
2023-02-27T23:37:21.665Z,100509.30
2023-02-27T23:39:54.346Z,100509.84
2023-02-27T23:42:41.978Z,100511.65
2023-02-27T23:45:23.453Z,100509.09
2023-02-27T23:47:54.817Z,100518.21
2023-02-27T23:50:25.554Z,100519.42
2023-02-27T23:52:54.858Z,100519.73
2023-02-27T23:55:23.550Z,100523.00
2023-02-27T23:57:53.473Z,100522.94
